createdAt,value
2019-05-06T07:19:06.928Z,84.84
2019-05-06T07:21:46.391Z,84.84
2019-05-06T07:24:25.982Z,94.29
2019-05-06T07:27:04.349Z,94.32
2019-05-06T07:29:35.539Z,93.86
2019-05-06T07:32:07.099Z,93.85
2019-05-06T07:34:38.876Z,93.88
2019-05-06T07:43:34.174Z,93.73
2019-05-06T07:46:07.211Z,93.73
2019-05-06T07:48:38.406Z,93.73
2019-05-06T07:51:12.295Z,94.15
2019-05-06T07:53:44.918Z,94.71
2019-05-06T07:56:22.458Z,94.70
2019-05-06T07:58:55.294Z,94.45
2019-05-06T08:01:26.843Z,94.23
2019-05-06T08:03:58.199Z,94.04
2019-05-06T08:06:32.061Z,94.14
2019-05-06T08:09:04.274Z,94.18
2019-05-06T08:11:37.153Z,94.09
2019-05-06T08:14:09.436Z,93.88
2019-05-06T08:16:45.889Z,94.08
2019-05-06T08:19:22.607Z,93.67
2019-05-06T08:21:58.417Z,93.99
2019-05-06T08:24:29.667Z,93.84
2019-05-06T08:27:03.527Z,93.98
2019-05-06T08:29:35.766Z,93.67
2019-05-06T08:32:13.165Z,94.14
2019-05-06T08:34:53.486Z,93.93
2019-05-06T08:37:32.105Z,92.87
2019-05-06T08:40:07.612Z,92.82
2019-05-06T08:42:38.972Z,93.17
2019-05-06T08:45:12.693Z,93.23
2019-05-06T08:47:45.382Z,93.10
2019-05-06T08:50:24.411Z,93.29
2019-05-06T08:53:09.905Z,92.32
2019-05-06T08:55:49.513Z,91.96
2019-05-06T08:58:22.643Z,92.48
2019-05-06T09:00:58.783Z,92.32
2019-05-06T09:03:32.655Z,92.17
2019-05-06T09:06:03.945Z,91.55
2019-05-06T09:08:37.671Z,90.94
2019-05-06T09:11:13.915Z,91.46
2019-05-06T09:13:45.033Z,90.45
2019-05-06T09:16:17.623Z,90.32
2019-05-06T09:18:48.916Z,91.31
2019-05-06T09:21:22.618Z,89.30
2019-05-06T09:23:57.292Z,88.30
2019-05-06T09:26:47.792Z,89.02
2019-05-06T09:29:33.263Z,89.19
2019-05-06T09:32:06.357Z,88.26
2019-05-06T09:34:52.678Z,88.71
2019-05-06T09:37:27.879Z,88.21
2019-05-06T09:40:03.088Z,86.73
2019-05-06T09:42:36.322Z,84.05
2019-05-06T09:45:08.196Z,85.90
2019-05-06T09:47:42.577Z,86.68
2019-05-06T09:50:15.763Z,86.74
2019-05-06T09:52:49.754Z,86.38
2019-05-06T09:55:42.976Z,86.48
2019-05-06T09:58:16.053Z,86.65
2019-05-06T10:00:51.952Z,86.08
2019-05-06T10:03:23.689Z,85.50
2019-05-06T10:05:55.100Z,85.02
2019-05-06T10:08:27.908Z,84.97
2019-05-06T10:11:00.086Z,84.06
2019-05-06T10:13:33.367Z,83.96
2019-05-06T10:16:04.610Z,85.10
2019-05-06T10:18:38.478Z,86.88
2019-05-06T10:21:12.364Z,85.09
2019-05-06T10:23:45.923Z,85.33
2019-05-06T10:26:23.448Z,85.68
2019-05-06T10:28:56.915Z,84.79
2019-05-06T10:31:29.725Z,85.40
2019-05-06T10:34:14.044Z,85.57
2019-05-06T10:37:26.511Z,83.69
2019-05-06T10:40:03.266Z,84.15
2019-05-06T10:42:46.939Z,85.42
2019-05-06T10:45:32.178Z,84.17
2019-05-06T10:48:03.203Z,85.33
2019-05-06T10:50:36.380Z,85.92
2019-05-06T10:53:23.296Z,85.11
2019-05-06T10:55:55.765Z,83.81
2019-05-06T10:58:27.143Z,84.55
2019-05-06T11:01:12.757Z,83.45
2019-05-06T11:03:52.496Z,84.16
2019-05-06T11:06:23.593Z,82.53
2019-05-06T11:08:58.956Z,82.58
2019-05-06T11:11:38.170Z,83.54
2019-05-06T11:14:12.434Z,83.09
2019-05-06T11:16:46.701Z,83.43
2019-05-06T11:19:18.802Z,83.62
2019-05-06T11:21:53.134Z,82.60
2019-05-06T11:24:26.165Z,81.50
2019-05-06T11:27:03.450Z,83.58
2019-05-06T11:29:36.907Z,83.80
2019-05-06T11:32:23.765Z,83.32
2019-05-06T11:34:58.001Z,82.74
2019-05-06T11:37:45.811Z,84.03
2019-05-06T11:40:16.524Z,82.81
2019-05-06T11:42:47.686Z,82.92
2019-05-06T11:45:22.912Z,82.83
2019-05-06T11:47:55.837Z,82.95
2019-05-06T11:50:33.431Z,82.65
2019-05-06T11:53:07.120Z,82.70
2019-05-06T11:55:54.797Z,82.54
2019-05-06T11:58:39.096Z,82.42
2019-05-06T12:01:17.230Z,82.74
2019-05-06T12:03:52.046Z,82.18
2019-05-06T12:06:29.734Z,82.35
2019-05-06T12:09:06.506Z,82.79
2019-05-06T12:11:40.204Z,83.31
2019-05-06T12:14:17.722Z,82.70
2019-05-06T12:16:56.611Z,82.71
2019-05-06T12:19:32.222Z,82.18
2019-05-06T12:22:03.835Z,83.05
2019-05-06T12:24:40.183Z,83.45
2019-05-06T12:27:15.438Z,83.01
2019-05-06T12:29:46.876Z,82.71
2019-05-06T12:32:23.033Z,82.76
2019-05-06T12:34:54.625Z,83.05
2019-05-06T12:37:27.286Z,82.91
2019-05-06T12:39:59.560Z,83.88
2019-05-06T12:42:36.162Z,84.51
2019-05-06T12:45:13.062Z,84.66
2019-05-06T12:47:46.147Z,84.44
2019-05-06T12:50:19.370Z,84.70
2019-05-06T12:52:52.919Z,84.71
2019-05-06T12:55:26.500Z,85.01
2019-05-06T12:57:58.664Z,85.05
2019-05-06T13:00:35.925Z,86.05
2019-05-06T13:03:19.144Z,85.46
2019-05-06T13:05:52.264Z,85.92
2019-05-06T13:08:28.927Z,86.17
2019-05-06T13:10:59.237Z,86.04
2019-05-06T13:13:32.995Z,86.84
2019-05-06T13:16:06.503Z,86.80
2019-05-06T13:18:46.999Z,86.58
2019-05-06T13:21:19.060Z,86.52
2019-05-06T13:24:01.676Z,87.12
2019-05-06T13:26:32.641Z,86.96
2019-05-06T13:29:13.161Z,86.08
2019-05-06T13:31:45.880Z,85.80
2019-05-06T13:34:18.333Z,86.08
2019-05-06T13:36:49.818Z,85.34
2019-05-06T13:39:23.684Z,86.35
2019-05-06T13:41:55.851Z,88.02
2019-05-06T13:44:27.249Z,89.72
2019-05-06T13:46:58.679Z,90.51
2019-05-06T13:49:35.612Z,91.57
2019-05-06T13:52:12.527Z,93.25
2019-05-06T13:54:43.448Z,93.79
2019-05-06T13:57:14.697Z,93.38
2019-05-06T13:59:45.964Z,93.41
2019-05-06T14:02:21.950Z,93.81
2019-05-06T14:04:54.259Z,94.47
2019-05-06T14:07:26.199Z,93.74
2019-05-06T14:09:57.678Z,93.15
2019-05-06T14:12:32.964Z,92.83
2019-05-06T14:15:06.821Z,92.76
2019-05-06T14:17:38.753Z,93.05
2019-05-06T14:20:12.452Z,93.35
2019-05-06T14:22:44.671Z,93.42
2019-05-06T14:25:35.716Z,92.71
2019-05-06T14:28:09.076Z,92.90
2019-05-06T14:30:42.930Z,93.21
2019-05-06T14:33:16.060Z,92.95
2019-05-06T14:35:47.193Z,93.33
2019-05-06T14:38:18.599Z,92.99
2019-05-06T14:41:09.926Z,93.43
2019-05-06T14:43:43.027Z,93.04
2019-05-06T14:46:14.451Z,93.12
2019-05-06T14:48:46.377Z,92.99
2019-05-06T14:51:18.431Z,93.05
2019-05-06T14:53:52.957Z,92.55
2019-05-06T14:56:25.624Z,92.96
2019-05-06T14:59:12.561Z,92.60
2019-05-06T15:01:47.482Z,92.44
2019-05-06T15:04:18.823Z,92.76
2019-05-06T15:06:50.289Z,92.07
2019-05-06T15:09:23.330Z,92.21
2019-05-06T15:11:55.225Z,91.88
2019-05-06T15:14:26.575Z,92.06
2019-05-06T15:16:58.122Z,92.25
2019-05-06T15:19:32.534Z,92.26
2019-05-06T15:22:04.003Z,92.39
2019-05-06T15:24:35.298Z,92.37
2019-05-06T15:27:06.690Z,92.53
2019-05-06T15:29:38.653Z,92.60
2019-05-06T15:32:12.969Z,92.18
2019-05-06T15:34:45.868Z,92.62
2019-05-06T15:37:24.718Z,92.65
2019-05-06T15:39:55.920Z,92.88
2019-05-06T15:42:27.179Z,92.75
2019-05-06T15:44:58.410Z,92.75
2019-05-06T15:47:32.285Z,93.15
2019-05-06T15:50:03.462Z,93.06
2019-05-06T15:52:39.904Z,93.16
2019-05-06T15:55:07.948Z,93.15
2019-05-06T15:57:39.548Z,93.26
2019-05-06T16:00:17.080Z,93.75
2019-05-06T16:02:49.501Z,93.74
2019-05-06T16:05:26.208Z,93.84
2019-05-06T16:07:54.159Z,93.93
2019-05-06T16:10:25.607Z,93.84
2019-05-06T16:13:02.313Z,94.03
2019-05-06T16:15:34.963Z,93.72
2019-05-06T16:18:07.538Z,93.55
2019-05-06T16:20:39.123Z,93.82
2019-05-06T16:23:12.601Z,93.72
2019-05-06T16:25:44.860Z,94.17
2019-05-06T16:28:16.839Z,94.26
2019-05-06T16:30:49.810Z,94.22
2019-05-06T16:33:22.226Z,94.47
2019-05-06T16:35:53.616Z,94.45
2019-05-06T16:38:25.814Z,94.50
2019-05-06T16:41:09.457Z,94.54
2019-05-06T16:43:36.221Z,94.52
2019-05-06T16:46:04.890Z,94.70
2019-05-06T16:48:38.997Z,94.98
2019-05-06T16:51:12.624Z,94.98
2019-05-06T16:53:47.003Z,94.98
2019-05-06T16:56:29.077Z,94.60
2019-05-06T16:59:03.007Z,95.21
2019-05-06T17:01:37.115Z,100.00
2019-05-06T17:04:15.878Z,100.00
2019-05-06T17:06:52.288Z,95.40
2019-05-06T17:09:27.536Z,95.78
2019-05-06T17:11:58.158Z,95.62
2019-05-06T17:14:32.590Z,95.53
2019-05-06T17:17:06.118Z,95.20
2019-05-06T17:19:37.446Z,95.15
2019-05-06T17:22:11.786Z,95.04
2019-05-06T17:24:48.575Z,94.86
2019-05-06T17:27:19.813Z,94.63
2019-05-06T17:29:52.978Z,93.93
2019-05-06T17:32:33.340Z,93.55
2019-05-06T17:35:06.849Z,93.85
2019-05-06T17:37:58.566Z,94.00
2019-05-06T17:40:32.203Z,93.85
2019-05-06T17:43:02.964Z,94.09
2019-05-06T17:45:58.238Z,94.08
2019-05-06T17:48:36.988Z,93.96
2019-05-06T17:51:13.082Z,93.63
2019-05-06T17:53:48.047Z,94.12
2019-05-06T17:56:22.281Z,94.01
2019-05-06T17:58:53.882Z,94.06
2019-05-06T18:01:32.683Z,94.48
2019-05-06T18:04:05.785Z,94.46
2019-05-06T18:06:36.913Z,94.46
2019-05-06T18:09:09.686Z,94.67
2019-05-06T18:11:57.931Z,94.85
2019-05-06T18:14:19.938Z,95.15
2019-05-06T18:16:53.624Z,95.32
2019-05-06T18:19:24.321Z,95.35
2019-05-06T18:21:55.540Z,95.39
2019-05-06T18:24:26.917Z,95.25
2019-05-06T18:26:58.629Z,95.31
2019-05-06T18:29:29.744Z,95.34
2019-05-06T18:32:03.522Z,95.68
2019-05-06T18:34:34.461Z,95.96
2019-05-06T18:37:08.464Z,95.80
2019-05-06T18:39:39.830Z,95.73
2019-05-06T18:42:19.127Z,95.76
2019-05-06T18:44:46.223Z,95.84
2019-05-06T18:47:19.077Z,96.01
2019-05-06T18:49:52.351Z,96.00
2019-05-06T18:52:23.702Z,95.65
2019-05-06T18:54:55.169Z,95.16
2019-05-06T18:57:26.620Z,94.64
2019-05-06T18:59:59.198Z,94.73
2019-05-06T19:02:31.363Z,94.64
2019-05-06T19:05:24.890Z,94.43
2019-05-06T19:07:56.583Z,94.39
2019-05-06T19:10:33.192Z,94.29
2019-05-06T19:13:03.878Z,94.05
2019-05-06T19:15:36.509Z,94.20
2019-05-06T19:18:08.428Z,94.67
2019-05-06T19:20:39.819Z,94.60
2019-05-06T19:23:13.026Z,94.39
2019-05-06T19:25:45.750Z,94.24
2019-05-06T19:28:16.891Z,94.46
2019-05-06T19:30:48.138Z,94.46
2019-05-06T19:33:20.606Z,94.35
2019-05-06T19:35:53.605Z,94.22
2019-05-06T19:38:27.914Z,94.30
2019-05-06T19:41:02.098Z,94.46
2019-05-06T19:43:36.839Z,94.21
2019-05-06T19:46:08.407Z,94.45
2019-05-06T19:48:47.436Z,94.40
2019-05-06T19:51:19.912Z,94.45
2019-05-06T19:53:51.288Z,94.37
2019-05-06T19:56:23.305Z,94.33
2019-05-06T19:58:55.390Z,94.41
2019-05-06T20:01:28.251Z,94.58
2019-05-06T20:03:59.608Z,94.47
2019-05-06T20:06:49.048Z,94.44
2019-05-06T20:09:33.960Z,94.69
2019-05-06T20:12:23.122Z,94.76
2019-05-06T20:14:57.769Z,94.69
2019-05-06T20:17:29.189Z,94.92
2019-05-06T20:20:02.757Z,94.84
2019-05-06T20:22:33.949Z,95.03
2019-05-06T20:25:06.360Z,94.93
2019-05-06T20:27:37.814Z,94.82
2019-05-06T20:30:09.892Z,94.84
2019-05-06T20:32:42.553Z,94.86
2019-05-06T20:35:14.465Z,94.87
2019-05-06T20:37:45.634Z,94.95
2019-05-06T20:40:17.062Z,95.18
2019-05-06T20:42:48.535Z,95.22
2019-05-06T20:45:22.323Z,95.51
2019-05-06T20:47:55.262Z,95.50
2019-05-06T20:50:27.053Z,96.05
2019-05-06T20:53:00.988Z,96.18
2019-05-06T20:55:35.599Z,95.95
2019-05-06T20:58:05.799Z,95.71
2019-05-06T21:00:37.272Z,95.62
2019-05-06T21:03:09.031Z,95.48
2019-05-06T21:05:40.549Z,95.30
2019-05-06T21:08:13.214Z,95.40
2019-05-06T21:10:44.492Z,95.41
2019-05-06T21:13:28.585Z,95.41
2019-05-06T21:15:49.240Z,95.38
2019-05-06T21:18:22.910Z,95.43
2019-05-06T21:20:53.990Z,95.32
2019-05-06T21:23:25.434Z,95.23
2019-05-06T21:25:56.788Z,94.98
2019-05-06T21:28:28.233Z,95.10
2019-05-06T21:31:05.281Z,95.07
2019-05-06T21:33:33.039Z,95.16
2019-05-06T21:36:04.631Z,95.04
2019-05-06T21:38:35.926Z,94.93
2019-05-06T21:41:07.225Z,94.89
2019-05-06T21:43:47.090Z,95.00
2019-05-06T21:46:12.978Z,94.82
2019-05-06T21:48:45.564Z,95.00
2019-05-06T21:51:16.916Z,94.92
2019-05-06T21:53:51.638Z,95.59
2019-05-06T21:56:22.781Z,95.64
2019-05-06T21:58:53.991Z,95.27
2019-05-06T22:01:25.635Z,94.78
2019-05-06T22:03:58.056Z,94.44
2019-05-06T22:06:29.898Z,94.31
2019-05-06T22:09:02.746Z,94.37
2019-05-06T22:11:35.685Z,94.45
2019-05-06T22:14:06.705Z,94.41
2019-05-06T22:16:38.173Z,94.52
2019-05-06T22:19:09.423Z,94.42
2019-05-06T22:21:42.592Z,94.37
2019-05-06T22:24:15.594Z,94.48
2019-05-06T22:26:46.747Z,94.92
2019-05-06T22:29:18.069Z,94.86
2019-05-06T22:31:49.506Z,95.03
2019-05-06T22:34:22.131Z,94.91
2019-05-06T22:36:54.266Z,94.42
2019-05-06T22:39:25.436Z,93.93
2019-05-06T22:41:56.667Z,93.99
2019-05-06T22:44:27.977Z,93.62
2019-05-06T22:46:59.471Z,93.56
2019-05-06T22:49:32.095Z,93.76
2019-05-06T22:52:03.356Z,93.62
2019-05-06T22:54:34.846Z,93.72
2019-05-06T22:57:06.192Z,94.26
2019-05-06T22:59:37.432Z,94.23
2019-05-06T23:02:13.157Z,94.22
2019-05-06T23:04:45.970Z,93.58
2019-05-06T23:07:18.139Z,93.74
2019-05-06T23:09:49.537Z,93.79
2019-05-06T23:12:23.012Z,94.01
2019-05-06T23:14:54.023Z,94.22
2019-05-06T23:17:25.228Z,94.75
2019-05-06T23:19:56.717Z,94.75
2019-05-06T23:22:27.962Z,95.04
2019-05-06T23:25:02.243Z,95.30
2019-05-06T23:27:34.347Z,95.50
2019-05-06T23:30:07.118Z,95.48
2019-05-06T23:32:38.474Z,95.64
2019-05-06T23:35:10.133Z,95.47
2019-05-06T23:38:17.981Z,95.22
2019-05-06T23:41:26.271Z,95.32
2019-05-06T23:44:45.376Z,95.64
2019-05-06T23:47:43.862Z,95.26
2019-05-06T23:50:51.493Z,95.17
2019-05-06T23:53:59.299Z,94.81
2019-05-06T23:56:43.753Z,94.97
2019-05-06T23:59:16.243Z,95.10
